sensor_id;sensor_type;location;lat;lon;timestamp;temperature;humidity
5870;DHT22;2961;47.702;9.410;2023-02-28T00:01:31;-1.30;99.90
5870;DHT22;2961;47.702;9.410;2023-02-28T00:03:58;-1.30;99.90
5870;DHT22;2961;47.702;9.410;2023-02-28T00:06:25;-1.30;99.90
5870;DHT22;2961;47.702;9.410;2023-02-28T00:08:52;-1.30;99.90
5870;DHT22;2961;47.702;9.410;2023-02-28T00:11:19;-1.30;99.90
5870;DHT22;2961;47.702;9.410;2023-02-28T00:13:47;-1.30;99.90
5870;DHT22;2961;47.702;9.410;2023-02-28T00:16:17;-1.30;99.90
5870;DHT22;2961;47.702;9.410;2023-02-28T00:18:44;-1.30;99.90
5870;DHT22;2961;47.702;9.410;2023-02-28T00:21:10;-1.30;99.90
5870;DHT22;2961;47.702;9.410;2023-02-28T00:23:37;-1.30;99.90
5870;DHT22;2961;47.702;9.410;2023-02-28T00:26:04;-1.30;99.90
5870;DHT22;2961;47.702;9.410;2023-02-28T00:28:31;-1.30;99.90
5870;DHT22;2961;47.702;9.410;2023-02-28T00:30:59;-1.30;99.90
5870;DHT22;2961;47.702;9.410;2023-02-28T00:33:26;-1.30;99.90
5870;DHT22;2961;47.702;9.410;2023-02-28T00:36:02;-1.30;99.90
5870;DHT22;2961;47.702;9.410;2023-02-28T00:38:29;-1.30;99.90
5870;DHT22;2961;47.702;9.410;2023-02-28T00:40:56;-1.30;99.90
5870;DHT22;2961;47.702;9.410;2023-02-28T00:43:24;-1.30;99.90
5870;DHT22;2961;47.702;9.410;2023-02-28T00:45:50;-1.30;99.90
5870;DHT22;2961;47.702;9.410;2023-02-28T00:48:19;-1.30;99.90
5870;DHT22;2961;47.702;9.410;2023-02-28T00:50:48;-1.30;99.90
5870;DHT22;2961;47.702;9.410;2023-02-28T00:53:15;-1.40;99.90
5870;DHT22;2961;47.702;9.410;2023-02-28T00:55:42;-1.40;99.90
5870;DHT22;2961;47.702;9.410;2023-02-28T00:58:08;-1.40;99.90
5870;DHT22;2961;47.702;9.410;2023-02-28T01:00:35;-1.40;99.90
5870;DHT22;2961;47.702;9.410;2023-02-28T01:03:02;-1.40;99.90
5870;DHT22;2961;47.702;9.410;2023-02-28T01:05:30;-1.40;99.90
5870;DHT22;2961;47.702;9.410;2023-02-28T01:07:57;-1.50;99.90
5870;DHT22;2961;47.702;9.410;2023-02-28T01:10:25;-1.50;99.90
5870;DHT22;2961;47.702;9.410;2023-02-28T01:12:51;-1.50;99.90
5870;DHT22;2961;47.702;9.410;2023-02-28T01:15:18;-1.50;99.90
5870;DHT22;2961;47.702;9.410;2023-02-28T01:17:45;-1.40;99.90
5870;DHT22;2961;47.702;9.410;2023-02-28T01:20:12;-1.40;99.90
5870;DHT22;2961;47.702;9.410;2023-02-28T01:22:40;-1.50;99.90
5870;DHT22;2961;47.702;9.410;2023-02-28T01:25:08;-1.50;99.90
5870;DHT22;2961;47.702;9.410;2023-02-28T01:27:34;-1.50;99.90
5870;DHT22;2961;47.702;9.410;2023-02-28T01:30:02;-1.40;99.90
5870;DHT22;2961;47.702;9.410;2023-02-28T01:32:29;-1.50;99.90
5870;DHT22;2961;47.702;9.410;2023-02-28T01:34:55;-1.50;99.90
5870;DHT22;2961;47.702;9.410;2023-02-28T01:37:22;-1.50;99.90
5870;DHT22;2961;47.702;9.410;2023-02-28T01:39:50;-1.40;99.90
5870;DHT22;2961;47.702;9.410;2023-02-28T01:42:17;-1.50;99.90
5870;DHT22;2961;47.702;9.410;2023-02-28T01:45:10;-1.50;99.90
5870;DHT22;2961;47.702;9.410;2023-02-28T01:47:43;-1.40;99.90
5870;DHT22;2961;47.702;9.410;2023-02-28T01:50:14;-1.40;99.90
5870;DHT22;2961;47.702;9.410;2023-02-28T01:52:42;-1.40;99.90
5870;DHT22;2961;47.702;9.410;2023-02-28T01:55:11;-1.50;99.90
5870;DHT22;2961;47.702;9.410;2023-02-28T01:57:41;-1.40;99.90
5870;DHT22;2961;47.702;9.410;2023-02-28T02:00:11;-1.40;99.90
5870;DHT22;2961;47.702;9.410;2023-02-28T02:02:42;-1.40;99.90
5870;DHT22;2961;47.702;9.410;2023-02-28T02:05:11;-1.40;99.90
5870;DHT22;2961;47.702;9.410;2023-02-28T02:07:40;-1.50;99.90
5870;DHT22;2961;47.702;9.410;2023-02-28T02:10:15;-1.50;99.90
5870;DHT22;2961;47.702;9.410;2023-02-28T02:12:56;-1.50;99.90
5870;DHT22;2961;47.702;9.410;2023-02-28T02:15:32;-1.50;99.90
5870;DHT22;2961;47.702;9.410;2023-02-28T02:18:05;-1.50;99.90
5870;DHT22;2961;47.702;9.410;2023-02-28T02:23:58;-1.50;99.90
5870;DHT22;2961;47.702;9.410;2023-02-28T02:26:46;-1.60;99.90
5870;DHT22;2961;47.702;9.410;2023-02-28T02:29:37;-1.60;99.90
5870;DHT22;2961;47.702;9.410;2023-02-28T02:32:20;-1.60;99.90
5870;DHT22;2961;47.702;9.410;2023-02-28T02:35:05;-1.60;99.90
5870;DHT22;2961;47.702;9.410;2023-02-28T02:37:40;-1.60;99.90
5870;DHT22;2961;47.702;9.410;2023-02-28T02:40:14;-1.70;99.90
5870;DHT22;2961;47.702;9.410;2023-02-28T02:42:48;-1.70;99.90
5870;DHT22;2961;47.702;9.410;2023-02-28T02:45:21;-1.60;99.90
5870;DHT22;2961;47.702;9.410;2023-02-28T02:47:50;-1.60;99.90
5870;DHT22;2961;47.702;9.410;2023-02-28T02:50:24;-1.60;99.90
5870;DHT22;2961;47.702;9.410;2023-02-28T02:52:56;-1.60;99.90
5870;DHT22;2961;47.702;9.410;2023-02-28T02:55:25;-1.60;99.90
5870;DHT22;2961;47.702;9.410;2023-02-28T02:57:54;-1.60;99.90
5870;DHT22;2961;47.702;9.410;2023-02-28T03:00:27;-1.60;99.90
5870;DHT22;2961;47.702;9.410;2023-02-28T03:02:57;-1.60;99.90
5870;DHT22;2961;47.702;9.410;2023-02-28T03:05:27;-1.60;99.90
5870;DHT22;2961;47.702;9.410;2023-02-28T03:07:56;-1.60;99.90
5870;DHT22;2961;47.702;9.410;2023-02-28T03:10:33;-1.60;99.90
5870;DHT22;2961;47.702;9.410;2023-02-28T03:13:24;-1.60;99.90
5870;DHT22;2961;47.702;9.410;2023-02-28T03:18:56;-1.70;99.90
5870;DHT22;2961;47.702;9.410;2023-02-28T03:21:32;-1.60;99.90
5870;DHT22;2961;47.702;9.410;2023-02-28T03:24:04;-1.60;99.90
5870;DHT22;2961;47.702;9.410;2023-02-28T03:26:34;-1.60;99.90
5870;DHT22;2961;47.702;9.410;2023-02-28T03:29:06;-1.60;99.90
5870;DHT22;2961;47.702;9.410;2023-02-28T03:31:40;-1.60;99.90
5870;DHT22;2961;47.702;9.410;2023-02-28T03:34:12;-1.70;99.90
5870;DHT22;2961;47.702;9.410;2023-02-28T03:36:45;-1.60;99.90
5870;DHT22;2961;47.702;9.410;2023-02-28T03:39:16;-1.60;99.90
5870;DHT22;2961;47.702;9.410;2023-02-28T03:41:48;-1.60;99.90
5870;DHT22;2961;47.702;9.410;2023-02-28T03:44:19;-1.60;99.90
5870;DHT22;2961;47.702;9.410;2023-02-28T03:46:51;-1.60;99.90
5870;DHT22;2961;47.702;9.410;2023-02-28T03:49:23;-1.60;99.90
5870;DHT22;2961;47.702;9.410;2023-02-28T03:51:54;-1.60;99.90
5870;DHT22;2961;47.702;9.410;2023-02-28T03:54:27;-1.60;99.90
5870;DHT22;2961;47.702;9.410;2023-02-28T03:56:59;-1.60;99.90
5870;DHT22;2961;47.702;9.410;2023-02-28T03:59:29;-1.60;99.90
5870;DHT22;2961;47.702;9.410;2023-02-28T04:01:57;-1.60;99.90
5870;DHT22;2961;47.702;9.410;2023-02-28T04:04:24;-1.70;99.90
5870;DHT22;2961;47.702;9.410;2023-02-28T04:07:00;-1.70;99.90
5870;DHT22;2961;47.702;9.410;2023-02-28T04:09:27;-1.70;99.90
5870;DHT22;2961;47.702;9.410;2023-02-28T04:11:54;-1.70;99.90
5870;DHT22;2961;47.702;9.410;2023-02-28T04:14:22;-1.70;99.90
5870;DHT22;2961;47.702;9.410;2023-02-28T04:16:49;-1.70;99.90
5870;DHT22;2961;47.702;9.410;2023-02-28T04:19:17;-1.70;99.90
5870;DHT22;2961;47.702;9.410;2023-02-28T04:21:46;-1.70;99.90
5870;DHT22;2961;47.702;9.410;2023-02-28T04:24:16;-1.70;99.90
5870;DHT22;2961;47.702;9.410;2023-02-28T04:26:45;-1.70;99.90
5870;DHT22;2961;47.702;9.410;2023-02-28T04:29:14;-1.70;99.90
5870;DHT22;2961;47.702;9.410;2023-02-28T04:31:44;-1.80;99.90
5870;DHT22;2961;47.702;9.410;2023-02-28T04:34:11;-1.70;99.90
5870;DHT22;2961;47.702;9.410;2023-02-28T04:36:38;-1.70;99.90
5870;DHT22;2961;47.702;9.410;2023-02-28T04:39:05;-1.70;99.90
5870;DHT22;2961;47.702;9.410;2023-02-28T04:41:33;-1.70;99.90
5870;DHT22;2961;47.702;9.410;2023-02-28T04:44:00;-1.70;99.90
5870;DHT22;2961;47.702;9.410;2023-02-28T04:46:27;-1.70;99.90
5870;DHT22;2961;47.702;9.410;2023-02-28T04:48:53;-1.70;99.90
5870;DHT22;2961;47.702;9.410;2023-02-28T04:51:20;-1.70;99.90
5870;DHT22;2961;47.702;9.410;2023-02-28T04:53:47;-1.70;99.90
5870;DHT22;2961;47.702;9.410;2023-02-28T04:56:16;-1.80;99.90
5870;DHT22;2961;47.702;9.410;2023-02-28T04:58:44;-1.80;99.90
5870;DHT22;2961;47.702;9.410;2023-02-28T05:01:20;-1.80;99.90
5870;DHT22;2961;47.702;9.410;2023-02-28T05:03:47;-1.80;99.90
5870;DHT22;2961;47.702;9.410;2023-02-28T05:06:15;-1.80;99.90
5870;DHT22;2961;47.702;9.410;2023-02-28T05:08:42;-1.80;99.90
5870;DHT22;2961;47.702;9.410;2023-02-28T05:11:14;-1.80;99.90
5870;DHT22;2961;47.702;9.410;2023-02-28T05:13:41;-1.80;99.90
5870;DHT22;2961;47.702;9.410;2023-02-28T05:16:09;-1.80;99.90
5870;DHT22;2961;47.702;9.410;2023-02-28T05:18:36;-1.80;99.90
5870;DHT22;2961;47.702;9.410;2023-02-28T05:21:03;-1.80;99.90
5870;DHT22;2961;47.702;9.410;2023-02-28T05:23:30;-1.90;99.90
5870;DHT22;2961;47.702;9.410;2023-02-28T05:25:56;-1.90;99.90
5870;DHT22;2961;47.702;9.410;2023-02-28T05:28:23;-1.90;99.90
5870;DHT22;2961;47.702;9.410;2023-02-28T05:30:50;-1.90;99.90
5870;DHT22;2961;47.702;9.410;2023-02-28T05:33:18;-1.90;99.90
5870;DHT22;2961;47.702;9.410;2023-02-28T05:35:45;-1.80;99.90
5870;DHT22;2961;47.702;9.410;2023-02-28T05:38:12;-1.90;99.90
5870;DHT22;2961;47.702;9.410;2023-02-28T05:40:39;-1.90;99.90
5870;DHT22;2961;47.702;9.410;2023-02-28T05:43:07;-1.90;99.90
5870;DHT22;2961;47.702;9.410;2023-02-28T05:45:34;-1.90;99.90
5870;DHT22;2961;47.702;9.410;2023-02-28T05:48:01;-1.90;99.90
5870;DHT22;2961;47.702;9.410;2023-02-28T05:50:30;-1.90;99.90
5870;DHT22;2961;47.702;9.410;2023-02-28T05:52:56;-1.90;99.90
5870;DHT22;2961;47.702;9.410;2023-02-28T05:55:23;-2.00;99.90
5870;DHT22;2961;47.702;9.410;2023-02-28T05:57:50;-2.00;99.90
5870;DHT22;2961;47.702;9.410;2023-02-28T06:00:17;-2.00;99.90
5870;DHT22;2961;47.702;9.410;2023-02-28T06:02:44;-2.00;99.90
5870;DHT22;2961;47.702;9.410;2023-02-28T06:05:14;-2.00;99.90
5870;DHT22;2961;47.702;9.410;2023-02-28T06:07:43;-2.00;99.90
5870;DHT22;2961;47.702;9.410;2023-02-28T06:10:10;-2.00;99.90
5870;DHT22;2961;47.702;9.410;2023-02-28T06:12:37;-2.00;99.90
5870;DHT22;2961;47.702;9.410;2023-02-28T06:15:05;-2.00;99.90
5870;DHT22;2961;47.702;9.410;2023-02-28T06:17:32;-2.00;99.90
5870;DHT22;2961;47.702;9.410;2023-02-28T06:19:59;-2.00;99.90
5870;DHT22;2961;47.702;9.410;2023-02-28T06:22:25;-2.00;99.90
5870;DHT22;2961;47.702;9.410;2023-02-28T06:24:56;-1.90;99.90
5870;DHT22;2961;47.702;9.410;2023-02-28T06:27:23;-1.90;99.90
5870;DHT22;2961;47.702;9.410;2023-02-28T06:29:53;-1.90;99.90
5870;DHT22;2961;47.702;9.410;2023-02-28T06:32:20;-1.90;99.90
5870;DHT22;2961;47.702;9.410;2023-02-28T06:34:47;-1.90;99.90
5870;DHT22;2961;47.702;9.410;2023-02-28T06:37:14;-1.80;99.90
5870;DHT22;2961;47.702;9.410;2023-02-28T06:39:41;-1.80;99.90
5870;DHT22;2961;47.702;9.410;2023-02-28T06:42:09;-1.80;99.90
5870;DHT22;2961;47.702;9.410;2023-02-28T06:44:36;-1.80;99.90
5870;DHT22;2961;47.702;9.410;2023-02-28T06:47:04;-1.80;99.90
5870;DHT22;2961;47.702;9.410;2023-02-28T06:49:31;-1.80;99.90
5870;DHT22;2961;47.702;9.410;2023-02-28T06:51:58;-1.70;99.90
5870;DHT22;2961;47.702;9.410;2023-02-28T06:54:25;-1.70;99.90
5870;DHT22;2961;47.702;9.410;2023-02-28T06:56:52;-1.60;99.90
5870;DHT22;2961;47.702;9.410;2023-02-28T06:59:21;-1.60;99.90
5870;DHT22;2961;47.702;9.410;2023-02-28T07:01:48;-1.70;99.90
5870;DHT22;2961;47.702;9.410;2023-02-28T07:04:15;-1.60;99.90
5870;DHT22;2961;47.702;9.410;2023-02-28T07:06:42;-1.60;99.90
5870;DHT22;2961;47.702;9.410;2023-02-28T07:09:08;-1.60;99.90
5870;DHT22;2961;47.702;9.410;2023-02-28T07:11:36;-1.60;99.90
5870;DHT22;2961;47.702;9.410;2023-02-28T07:14:02;-1.60;99.90
5870;DHT22;2961;47.702;9.410;2023-02-28T07:16:31;-1.60;99.90
5870;DHT22;2961;47.702;9.410;2023-02-28T07:18:57;-1.50;99.90
5870;DHT22;2961;47.702;9.410;2023-02-28T07:21:25;-1.50;99.90
5870;DHT22;2961;47.702;9.410;2023-02-28T07:23:51;-1.50;99.90
5870;DHT22;2961;47.702;9.410;2023-02-28T07:26:19;-1.50;99.90
5870;DHT22;2961;47.702;9.410;2023-02-28T07:28:47;-1.50;99.90
5870;DHT22;2961;47.702;9.410;2023-02-28T07:31:15;-1.40;99.90
5870;DHT22;2961;47.702;9.410;2023-02-28T07:33:43;-1.40;99.90
5870;DHT22;2961;47.702;9.410;2023-02-28T07:36:12;-1.40;99.90
5870;DHT22;2961;47.702;9.410;2023-02-28T07:38:40;-1.30;99.90
5870;DHT22;2961;47.702;9.410;2023-02-28T07:41:07;-1.30;99.90
5870;DHT22;2961;47.702;9.410;2023-02-28T07:43:35;-1.30;99.90
5870;DHT22;2961;47.702;9.410;2023-02-28T07:46:02;-1.20;99.90
5870;DHT22;2961;47.702;9.410;2023-02-28T07:48:29;-1.20;99.90
5870;DHT22;2961;47.702;9.410;2023-02-28T07:50:58;-1.10;99.90
5870;DHT22;2961;47.702;9.410;2023-02-28T07:53:26;-1.10;99.90
5870;DHT22;2961;47.702;9.410;2023-02-28T07:55:55;-1.10;99.90
5870;DHT22;2961;47.702;9.410;2023-02-28T07:58:22;-1.10;99.90
5870;DHT22;2961;47.702;9.410;2023-02-28T08:00:49;-1.10;99.90
5870;DHT22;2961;47.702;9.410;2023-02-28T08:03:16;-1.10;99.90
5870;DHT22;2961;47.702;9.410;2023-02-28T08:05:43;-1.10;99.90
5870;DHT22;2961;47.702;9.410;2023-02-28T08:08:11;-1.10;99.90
5870;DHT22;2961;47.702;9.410;2023-02-28T08:10:38;-1.00;99.90
5870;DHT22;2961;47.702;9.410;2023-02-28T08:13:05;-0.90;99.90
5870;DHT22;2961;47.702;9.410;2023-02-28T08:15:31;-0.90;99.90
5870;DHT22;2961;47.702;9.410;2023-02-28T08:17:58;-0.90;99.90
5870;DHT22;2961;47.702;9.410;2023-02-28T08:20:26;-0.90;99.90
5870;DHT22;2961;47.702;9.410;2023-02-28T08:22:53;-0.90;99.90
5870;DHT22;2961;47.702;9.410;2023-02-28T08:25:21;-0.90;99.90
5870;DHT22;2961;47.702;9.410;2023-02-28T08:27:50;-0.80;99.90
5870;DHT22;2961;47.702;9.410;2023-02-28T08:30:17;-0.70;99.90
5870;DHT22;2961;47.702;9.410;2023-02-28T08:32:44;-0.80;99.90
5870;DHT22;2961;47.702;9.410;2023-02-28T08:35:11;-0.80;99.90
5870;DHT22;2961;47.702;9.410;2023-02-28T08:37:38;-0.90;99.90
5870;DHT22;2961;47.702;9.410;2023-02-28T08:40:06;-0.90;99.90
5870;DHT22;2961;47.702;9.410;2023-02-28T08:42:34;-0.90;99.90
5870;DHT22;2961;47.702;9.410;2023-02-28T08:45:01;-0.90;99.90
5870;DHT22;2961;47.702;9.410;2023-02-28T08:47:28;-0.90;99.90
5870;DHT22;2961;47.702;9.410;2023-02-28T08:49:54;-0.90;99.90
5870;DHT22;2961;47.702;9.410;2023-02-28T08:52:21;-0.90;99.90
5870;DHT22;2961;47.702;9.410;2023-02-28T08:54:48;-0.90;99.90
5870;DHT22;2961;47.702;9.410;2023-02-28T08:57:15;-0.80;99.90
5870;DHT22;2961;47.702;9.410;2023-02-28T08:59:43;-0.80;99.90
5870;DHT22;2961;47.702;9.410;2023-02-28T09:02:12;-0.70;99.90
5870;DHT22;2961;47.702;9.410;2023-02-28T09:04:39;-0.70;99.90
5870;DHT22;2961;47.702;9.410;2023-02-28T09:07:06;-0.60;99.90
5870;DHT22;2961;47.702;9.410;2023-02-28T09:09:33;-0.60;99.90
5870;DHT22;2961;47.702;9.410;2023-02-28T09:12:00;-0.50;99.90
5870;DHT22;2961;47.702;9.410;2023-02-28T09:14:27;-0.40;99.90
5870;DHT22;2961;47.702;9.410;2023-02-28T09:16:55;-0.40;99.90
5870;DHT22;2961;47.702;9.410;2023-02-28T09:19:22;-0.50;99.90
5870;DHT22;2961;47.702;9.410;2023-02-28T09:21:49;-0.40;99.90
5870;DHT22;2961;47.702;9.410;2023-02-28T09:24:16;-0.30;99.90
5870;DHT22;2961;47.702;9.410;2023-02-28T09:26:43;-0.30;99.90
5870;DHT22;2961;47.702;9.410;2023-02-28T09:29:10;-0.20;99.90
5870;DHT22;2961;47.702;9.410;2023-02-28T09:31:37;-0.10;99.90
5870;DHT22;2961;47.702;9.410;2023-02-28T09:34:05;-0.10;99.90
5870;DHT22;2961;47.702;9.410;2023-02-28T09:36:32;-0.20;99.90
5870;DHT22;2961;47.702;9.410;2023-02-28T09:39:00;-0.20;99.90
5870;DHT22;2961;47.702;9.410;2023-02-28T09:41:27;-0.20;99.90
5870;DHT22;2961;47.702;9.410;2023-02-28T09:44:02;-0.30;99.90
5870;DHT22;2961;47.702;9.410;2023-02-28T09:46:34;-0.20;99.90
5870;DHT22;2961;47.702;9.410;2023-02-28T09:49:07;-0.10;99.90
5870;DHT22;2961;47.702;9.410;2023-02-28T09:51:40;0.00;99.90
5870;DHT22;2961;47.702;9.410;2023-02-28T09:54:14;0.10;99.90
5870;DHT22;2961;47.702;9.410;2023-02-28T09:56:45;0.10;99.90
5870;DHT22;2961;47.702;9.410;2023-02-28T09:59:23;0.20;99.90
5870;DHT22;2961;47.702;9.410;2023-02-28T10:01:59;0.20;99.90
5870;DHT22;2961;47.702;9.410;2023-02-28T10:04:40;0.30;99.90
5870;DHT22;2961;47.702;9.410;2023-02-28T10:07:18;0.20;99.90
5870;DHT22;2961;47.702;9.410;2023-02-28T10:09:52;0.20;99.90
5870;DHT22;2961;47.702;9.410;2023-02-28T10:12:20;0.30;99.90
5870;DHT22;2961;47.702;9.410;2023-02-28T10:14:49;0.40;99.90
5870;DHT22;2961;47.702;9.410;2023-02-28T10:17:21;0.50;99.90
5870;DHT22;2961;47.702;9.410;2023-02-28T10:19:58;0.60;99.90
5870;DHT22;2961;47.702;9.410;2023-02-28T10:22:31;0.60;99.90
5870;DHT22;2961;47.702;9.410;2023-02-28T10:25:00;0.50;99.90
5870;DHT22;2961;47.702;9.410;2023-02-28T10:27:30;0.50;99.90
5870;DHT22;2961;47.702;9.410;2023-02-28T10:29:59;0.40;99.90
5870;DHT22;2961;47.702;9.410;2023-02-28T10:32:29;0.40;99.90
5870;DHT22;2961;47.702;9.410;2023-02-28T10:35:00;0.30;99.90
5870;DHT22;2961;47.702;9.410;2023-02-28T10:37:27;0.40;99.90
5870;DHT22;2961;47.702;9.410;2023-02-28T10:39:54;0.60;99.90
5870;DHT22;2961;47.702;9.410;2023-02-28T10:42:24;0.60;99.90
5870;DHT22;2961;47.702;9.410;2023-02-28T10:45:11;0.50;99.90
5870;DHT22;2961;47.702;9.410;2023-02-28T10:47:49;0.50;99.90
5870;DHT22;2961;47.702;9.410;2023-02-28T10:50:31;0.60;99.90
5870;DHT22;2961;47.702;9.410;2023-02-28T10:53:10;0.60;99.90
5870;DHT22;2961;47.702;9.410;2023-02-28T10:55:41;0.70;99.90
5870;DHT22;2961;47.702;9.410;2023-02-28T10:58:21;0.60;99.90
5870;DHT22;2961;47.702;9.410;2023-02-28T11:00:48;0.70;99.90
5870;DHT22;2961;47.702;9.410;2023-02-28T11:03:25;0.70;99.90
5870;DHT22;2961;47.702;9.410;2023-02-28T11:05:53;0.70;99.90
5870;DHT22;2961;47.702;9.410;2023-02-28T11:08:20;0.70;99.90
5870;DHT22;2961;47.702;9.410;2023-02-28T11:10:53;0.70;99.90
5870;DHT22;2961;47.702;9.410;2023-02-28T11:13:24;0.70;99.90
5870;DHT22;2961;47.702;9.410;2023-02-28T11:15:54;1.00;99.90
5870;DHT22;2961;47.702;9.410;2023-02-28T11:18:28;1.20;99.90
5870;DHT22;2961;47.702;9.410;2023-02-28T11:20:59;1.40;99.90
5870;DHT22;2961;47.702;9.410;2023-02-28T11:23:30;1.30;99.90
5870;DHT22;2961;47.702;9.410;2023-02-28T11:25:59;1.30;99.90
5870;DHT22;2961;47.702;9.410;2023-02-28T11:28:28;1.30;99.90
5870;DHT22;2961;47.702;9.410;2023-02-28T11:31:05;1.30;99.90
5870;DHT22;2961;47.702;9.410;2023-02-28T11:33:40;1.20;99.90
5870;DHT22;2961;47.702;9.410;2023-02-28T11:36:12;1.10;99.90
5870;DHT22;2961;47.702;9.410;2023-02-28T11:38:40;1.00;99.90
5870;DHT22;2961;47.702;9.410;2023-02-28T11:41:28;0.90;99.90
5870;DHT22;2961;47.702;9.410;2023-02-28T11:44:15;1.00;99.90
5870;DHT22;2961;47.702;9.410;2023-02-28T11:46:50;1.10;99.90
5870;DHT22;2961;47.702;9.410;2023-02-28T11:49:28;1.10;99.90
5870;DHT22;2961;47.702;9.410;2023-02-28T11:52:00;1.10;99.90
5870;DHT22;2961;47.702;9.410;2023-02-28T11:54:48;1.10;99.90
5870;DHT22;2961;47.702;9.410;2023-02-28T11:57:30;1.00;99.90
5870;DHT22;2961;47.702;9.410;2023-02-28T12:00:05;1.00;99.90
5870;DHT22;2961;47.702;9.410;2023-02-28T12:02:36;1.10;99.90
5870;DHT22;2961;47.702;9.410;2023-02-28T12:05:13;1.10;99.90
5870;DHT22;2961;47.702;9.410;2023-02-28T12:07:52;1.20;99.90
5870;DHT22;2961;47.702;9.410;2023-02-28T12:10:24;1.30;99.90
5870;DHT22;2961;47.702;9.410;2023-02-28T12:13:01;1.50;99.90
5870;DHT22;2961;47.702;9.410;2023-02-28T12:15:53;1.50;99.90
5870;DHT22;2961;47.702;9.410;2023-02-28T12:18:43;1.60;99.90
5870;DHT22;2961;47.702;9.410;2023-02-28T12:21:18;1.60;99.90
5870;DHT22;2961;47.702;9.410;2023-02-28T12:24:00;1.60;99.90
5870;DHT22;2961;47.702;9.410;2023-02-28T12:26:34;1.60;99.90
5870;DHT22;2961;47.702;9.410;2023-02-28T12:29:10;1.60;99.90
5870;DHT22;2961;47.702;9.410;2023-02-28T12:31:43;1.60;99.90
5870;DHT22;2961;47.702;9.410;2023-02-28T12:34:15;1.70;99.90
5870;DHT22;2961;47.702;9.410;2023-02-28T12:36:44;1.70;99.90
5870;DHT22;2961;47.702;9.410;2023-02-28T12:39:17;1.80;99.90
5870;DHT22;2961;47.702;9.410;2023-02-28T12:41:48;1.90;99.90
5870;DHT22;2961;47.702;9.410;2023-02-28T12:44:19;1.80;99.90
5870;DHT22;2961;47.702;9.410;2023-02-28T12:46:50;1.70;99.90
5870;DHT22;2961;47.702;9.410;2023-02-28T12:49:21;1.60;99.90
5870;DHT22;2961;47.702;9.410;2023-02-28T12:51:50;1.70;99.90
5870;DHT22;2961;47.702;9.410;2023-02-28T12:54:24;1.60;99.90
5870;DHT22;2961;47.702;9.410;2023-02-28T12:56:57;1.60;99.90
5870;DHT22;2961;47.702;9.410;2023-02-28T12:59:27;1.60;99.90
5870;DHT22;2961;47.702;9.410;2023-02-28T13:02:01;1.60;99.90
5870;DHT22;2961;47.702;9.410;2023-02-28T13:07:32;1.60;99.90
5870;DHT22;2961;47.702;9.410;2023-02-28T13:10:05;1.60;99.90
5870;DHT22;2961;47.702;9.410;2023-02-28T13:12:33;1.60;99.90
5870;DHT22;2961;47.702;9.410;2023-02-28T13:15:05;1.60;99.90
5870;DHT22;2961;47.702;9.410;2023-02-28T13:17:38;1.60;99.90
5870;DHT22;2961;47.702;9.410;2023-02-28T13:20:15;1.50;99.90
5870;DHT22;2961;47.702;9.410;2023-02-28T13:22:44;1.50;99.90
5870;DHT22;2961;47.702;9.410;2023-02-28T13:34:27;1.80;99.90
5870;DHT22;2961;47.702;9.410;2023-02-28T13:37:33;1.80;99.90
5870;DHT22;2961;47.702;9.410;2023-02-28T13:42:49;2.00;99.90
5870;DHT22;2961;47.702;9.410;2023-02-28T13:45:25;1.90;99.90
5870;DHT22;2961;47.702;9.410;2023-02-28T13:47:55;1.80;99.90
5870;DHT22;2961;47.702;9.410;2023-02-28T13:50:29;1.80;99.90
5870;DHT22;2961;47.702;9.410;2023-02-28T13:53:26;1.80;99.90
5870;DHT22;2961;47.702;9.410;2023-02-28T13:56:03;1.80;99.90
5870;DHT22;2961;47.702;9.410;2023-02-28T13:58:43;1.80;99.90
5870;DHT22;2961;47.702;9.410;2023-02-28T14:01:22;1.80;99.90
5870;DHT22;2961;47.702;9.410;2023-02-28T14:04:02;1.80;99.90
5870;DHT22;2961;47.702;9.410;2023-02-28T14:06:33;2.00;99.90
5870;DHT22;2961;47.702;9.410;2023-02-28T14:09:06;2.00;99.90
5870;DHT22;2961;47.702;9.410;2023-02-28T14:11:43;1.80;99.90
5870;DHT22;2961;47.702;9.410;2023-02-28T14:17:17;1.70;99.90
5870;DHT22;2961;47.702;9.410;2023-02-28T14:19:45;1.60;99.90
5870;DHT22;2961;47.702;9.410;2023-02-28T14:22:40;1.60;99.90
5870;DHT22;2961;47.702;9.410;2023-02-28T14:25:18;1.60;99.90
5870;DHT22;2961;47.702;9.410;2023-02-28T14:27:50;1.70;99.90
5870;DHT22;2961;47.702;9.410;2023-02-28T14:30:37;1.70;99.90
5870;DHT22;2961;47.702;9.410;2023-02-28T14:33:25;1.70;99.90
5870;DHT22;2961;47.702;9.410;2023-02-28T14:36:04;1.60;99.90
5870;DHT22;2961;47.702;9.410;2023-02-28T14:38:37;1.70;99.90
5870;DHT22;2961;47.702;9.410;2023-02-28T14:41:14;1.70;99.90
5870;DHT22;2961;47.702;9.410;2023-02-28T14:43:50;1.60;99.90
5870;DHT22;2961;47.702;9.410;2023-02-28T14:46:17;1.60;99.90
5870;DHT22;2961;47.702;9.410;2023-02-28T14:48:47;1.60;99.90
5870;DHT22;2961;47.702;9.410;2023-02-28T14:51:19;1.50;99.90
5870;DHT22;2961;47.702;9.410;2023-02-28T14:53:49;1.50;99.90
5870;DHT22;2961;47.702;9.410;2023-02-28T14:56:23;1.50;99.90
5870;DHT22;2961;47.702;9.410;2023-02-28T14:58:54;1.50;99.90
5870;DHT22;2961;47.702;9.410;2023-02-28T15:01:23;1.60;99.90
5870;DHT22;2961;47.702;9.410;2023-02-28T15:04:00;1.50;99.90
5870;DHT22;2961;47.702;9.410;2023-02-28T15:06:28;1.50;99.90
5870;DHT22;2961;47.702;9.410;2023-02-28T15:09:10;1.40;99.90
5870;DHT22;2961;47.702;9.410;2023-02-28T15:11:39;1.30;99.90
5870;DHT22;2961;47.702;9.410;2023-02-28T15:14:06;1.30;99.90
5870;DHT22;2961;47.702;9.410;2023-02-28T15:16:36;1.30;99.90
5870;DHT22;2961;47.702;9.410;2023-02-28T15:19:07;1.40;99.90
5870;DHT22;2961;47.702;9.410;2023-02-28T15:21:40;1.30;99.90
5870;DHT22;2961;47.702;9.410;2023-02-28T15:24:12;1.30;99.90
5870;DHT22;2961;47.702;9.410;2023-02-28T15:26:45;1.20;99.90
5870;DHT22;2961;47.702;9.410;2023-02-28T15:29:15;1.10;99.90
5870;DHT22;2961;47.702;9.410;2023-02-28T15:31:45;1.10;99.90
5870;DHT22;2961;47.702;9.410;2023-02-28T15:34:20;1.20;99.90
5870;DHT22;2961;47.702;9.410;2023-02-28T15:36:47;1.10;99.90
5870;DHT22;2961;47.702;9.410;2023-02-28T15:39:20;1.00;99.90
5870;DHT22;2961;47.702;9.410;2023-02-28T15:41:47;1.00;99.90
5870;DHT22;2961;47.702;9.410;2023-02-28T15:44:16;0.90;99.90
5870;DHT22;2961;47.702;9.410;2023-02-28T15:46:45;0.90;99.90
5870;DHT22;2961;47.702;9.410;2023-02-28T15:49:21;0.90;99.90
5870;DHT22;2961;47.702;9.410;2023-02-28T15:51:49;0.80;99.90
5870;DHT22;2961;47.702;9.410;2023-02-28T15:54:20;0.70;99.90
5870;DHT22;2961;47.702;9.410;2023-02-28T15:56:51;0.70;99.90
5870;DHT22;2961;47.702;9.410;2023-02-28T15:59:21;0.60;99.90
5870;DHT22;2961;47.702;9.410;2023-02-28T16:02:03;0.70;99.90
5870;DHT22;2961;47.702;9.410;2023-02-28T16:04:31;0.70;99.90
5870;DHT22;2961;47.702;9.410;2023-02-28T16:07:02;0.70;99.90
5870;DHT22;2961;47.702;9.410;2023-02-28T16:09:29;0.70;99.90
5870;DHT22;2961;47.702;9.410;2023-02-28T16:12:00;0.70;99.90
5870;DHT22;2961;47.702;9.410;2023-02-28T16:14:29;0.60;99.90
5870;DHT22;2961;47.702;9.410;2023-02-28T16:17:02;0.60;99.90
5870;DHT22;2961;47.702;9.410;2023-02-28T16:19:31;0.50;99.90
5870;DHT22;2961;47.702;9.410;2023-02-28T16:21:58;0.50;99.90
5870;DHT22;2961;47.702;9.410;2023-02-28T16:24:25;0.50;99.90
5870;DHT22;2961;47.702;9.410;2023-02-28T16:26:53;0.40;99.90
5870;DHT22;2961;47.702;9.410;2023-02-28T16:29:26;0.50;99.90
5870;DHT22;2961;47.702;9.410;2023-02-28T16:31:53;0.40;99.90
5870;DHT22;2961;47.702;9.410;2023-02-28T16:34:20;0.40;99.90
5870;DHT22;2961;47.702;9.410;2023-02-28T16:36:49;0.30;99.90
5870;DHT22;2961;47.702;9.410;2023-02-28T16:39:16;0.30;99.90
5870;DHT22;2961;47.702;9.410;2023-02-28T16:41:45;0.20;99.90
5870;DHT22;2961;47.702;9.410;2023-02-28T16:44:21;0.20;99.90
5870;DHT22;2961;47.702;9.410;2023-02-28T16:46:50;0.10;99.90
5870;DHT22;2961;47.702;9.410;2023-02-28T16:49:16;0.00;99.90
5870;DHT22;2961;47.702;9.410;2023-02-28T16:51:43;0.10;99.90
5870;DHT22;2961;47.702;9.410;2023-02-28T16:54:11;0.00;99.90